Johnsville, New York
Current Conditions -  °F | °C
As of 7:55 AM on Thursday 27 Nov 2014 (Local Time) from KNY0 Reporting Station
Overcast Overcast  
Wind Chill: 20°   Ceiling: 2900
Heat Index: 25°   Visibility: 10mi
Dew Point: 24°   Wind: 5mph
Humidity: 93%   Direction: 240°WSW
Pressure: 29.95"   Gusts: NA
Location:  43.035°N, 74.6217°W
Report Text: KNY0 271255Z AUTO 24004KT 10SM OVC029 M04/M05 A2995 RMK AO2 T10371047
Loading
Personal Weather Stations






























Interactive Weather Map New forecast layout! Learn more

10-Day Weather Forecast

Advertisements
Track Severe Weather on mobile